sensor_id;sensor_type;location;lat;lon;timestamp;P1;durP1;ratioP1;P2;durP2;ratioP2
19341;SDS011;9807;48.258;12.690;2023-05-10T00:01:29;6.20;;;4.10;;
19341;SDS011;9807;48.258;12.690;2023-05-10T00:03:55;3.83;;;3.53;;
19341;SDS011;9807;48.258;12.690;2023-05-10T00:06:21;4.43;;;4.00;;
19341;SDS011;9807;48.258;12.690;2023-05-10T00:08:46;7.77;;;5.90;;
19341;SDS011;9807;48.258;12.690;2023-05-10T00:11:12;5.30;;;4.40;;
19341;SDS011;9807;48.258;12.690;2023-05-10T00:13:41;6.13;;;4.63;;
19341;SDS011;9807;48.258;12.690;2023-05-10T00:16:07;5.30;;;4.00;;
19341;SDS011;9807;48.258;12.690;2023-05-10T00:18:32;4.50;;;4.10;;
19341;SDS011;9807;48.258;12.690;2023-05-10T00:21:01;8.33;;;4.90;;
19341;SDS011;9807;48.258;12.690;2023-05-10T00:23:27;4.63;;;4.23;;
19341;SDS011;9807;48.258;12.690;2023-05-10T00:25:53;7.73;;;4.13;;
19341;SDS011;9807;48.258;12.690;2023-05-10T00:28:18;5.83;;;5.03;;
19341;SDS011;9807;48.258;12.690;2023-05-10T00:30:44;6.70;;;5.40;;
19341;SDS011;9807;48.258;12.690;2023-05-10T00:33:10;8.60;;;4.67;;
19341;SDS011;9807;48.258;12.690;2023-05-10T00:35:36;5.90;;;4.93;;
19341;SDS011;9807;48.258;12.690;2023-05-10T00:38:03;6.13;;;4.70;;
19341;SDS011;9807;48.258;12.690;2023-05-10T00:40:29;4.80;;;4.30;;
19341;SDS011;9807;48.258;12.690;2023-05-10T00:42:55;5.60;;;4.87;;
19341;SDS011;9807;48.258;12.690;2023-05-10T00:45:22;5.67;;;4.33;;
19341;SDS011;9807;48.258;12.690;2023-05-10T00:47:48;6.50;;;4.53;;
19341;SDS011;9807;48.258;12.690;2023-05-10T00:50:21;4.50;;;4.10;;
19341;SDS011;9807;48.258;12.690;2023-05-10T00:52:47;5.77;;;4.40;;
19341;SDS011;9807;48.258;12.690;2023-05-10T00:55:13;7.47;;;5.30;;
19341;SDS011;9807;48.258;12.690;2023-05-10T00:57:39;5.13;;;4.63;;
19341;SDS011;9807;48.258;12.690;2023-05-10T01:00:05;4.93;;;4.20;;
19341;SDS011;9807;48.258;12.690;2023-05-10T01:02:32;6.37;;;4.50;;
19341;SDS011;9807;48.258;12.690;2023-05-10T01:04:59;4.70;;;4.03;;
19341;SDS011;9807;48.258;12.690;2023-05-10T01:07:31;5.90;;;4.27;;
19341;SDS011;9807;48.258;12.690;2023-05-10T01:09:57;4.27;;;3.73;;
19341;SDS011;9807;48.258;12.690;2023-05-10T01:12:25;6.20;;;4.33;;
19341;SDS011;9807;48.258;12.690;2023-05-10T01:14:51;10.37;;;6.70;;
19341;SDS011;9807;48.258;12.690;2023-05-10T01:17:17;8.33;;;6.57;;
19341;SDS011;9807;48.258;12.690;2023-05-10T01:19:42;7.20;;;5.43;;
19341;SDS011;9807;48.258;12.690;2023-05-10T01:30:35;8.73;;;6.93;;
19341;SDS011;9807;48.258;12.690;2023-05-10T01:33:39;6.93;;;5.20;;
19341;SDS011;9807;48.258;12.690;2023-05-10T01:36:24;7.73;;;6.10;;
19341;SDS011;9807;48.258;12.690;2023-05-10T01:41:36;5.33;;;4.33;;
19341;SDS011;9807;48.258;12.690;2023-05-10T01:50:19;9.43;;;5.10;;
19341;SDS011;9807;48.258;12.690;2023-05-10T01:52:53;7.93;;;6.37;;
19341;SDS011;9807;48.258;12.690;2023-05-10T01:55:22;7.80;;;5.10;;
19341;SDS011;9807;48.258;12.690;2023-05-10T01:57:52;9.80;;;7.33;;
19341;SDS011;9807;48.258;12.690;2023-05-10T02:00:28;9.33;;;6.47;;
19341;SDS011;9807;48.258;12.690;2023-05-10T02:02:56;7.90;;;7.07;;
19341;SDS011;9807;48.258;12.690;2023-05-10T02:05:25;8.10;;;5.67;;
19341;SDS011;9807;48.258;12.690;2023-05-10T02:07:54;5.00;;;4.40;;
19341;SDS011;9807;48.258;12.690;2023-05-10T02:10:20;7.97;;;6.90;;
19341;SDS011;9807;48.258;12.690;2023-05-10T02:12:47;6.97;;;5.70;;
19341;SDS011;9807;48.258;12.690;2023-05-10T02:15:15;6.10;;;4.93;;
19341;SDS011;9807;48.258;12.690;2023-05-10T02:17:45;4.50;;;4.10;;
19341;SDS011;9807;48.258;12.690;2023-05-10T02:20:12;4.73;;;4.23;;
19341;SDS011;9807;48.258;12.690;2023-05-10T02:22:40;4.60;;;4.20;;
19341;SDS011;9807;48.258;12.690;2023-05-10T02:25:08;6.53;;;5.60;;
19341;SDS011;9807;48.258;12.690;2023-05-10T02:27:35;4.80;;;4.23;;
19341;SDS011;9807;48.258;12.690;2023-05-10T02:30:05;6.80;;;4.67;;
19341;SDS011;9807;48.258;12.690;2023-05-10T02:32:31;6.20;;;5.20;;
19341;SDS011;9807;48.258;12.690;2023-05-10T02:34:59;7.20;;;4.80;;
19341;SDS011;9807;48.258;12.690;2023-05-10T02:37:26;6.80;;;6.10;;
19341;SDS011;9807;48.258;12.690;2023-05-10T02:39:53;6.40;;;5.47;;
19341;SDS011;9807;48.258;12.690;2023-05-10T02:42:22;7.17;;;5.57;;
19341;SDS011;9807;48.258;12.690;2023-05-10T02:44:52;4.47;;;4.07;;
19341;SDS011;9807;48.258;12.690;2023-05-10T02:47:25;5.03;;;4.53;;
19341;SDS011;9807;48.258;12.690;2023-05-10T02:49:52;5.53;;;4.30;;
19341;SDS011;9807;48.258;12.690;2023-05-10T02:52:23;5.27;;;4.63;;
19341;SDS011;9807;48.258;12.690;2023-05-10T02:54:52;5.00;;;3.90;;
19341;SDS011;9807;48.258;12.690;2023-05-10T02:57:43;4.80;;;4.30;;
19341;SDS011;9807;48.258;12.690;2023-05-10T03:00:10;5.93;;;4.53;;
19341;SDS011;9807;48.258;12.690;2023-05-10T03:02:36;4.83;;;4.00;;
19341;SDS011;9807;48.258;12.690;2023-05-10T03:05:02;6.67;;;4.40;;
19341;SDS011;9807;48.258;12.690;2023-05-10T03:07:29;9.33;;;7.03;;
19341;SDS011;9807;48.258;12.690;2023-05-10T03:09:55;6.17;;;5.53;;
19341;SDS011;9807;48.258;12.690;2023-05-10T03:18:00;4.97;;;4.50;;
19341;SDS011;9807;48.258;12.690;2023-05-10T03:20:35;5.30;;;4.20;;
19341;SDS011;9807;48.258;12.690;2023-05-10T03:25:48;7.40;;;6.00;;
19341;SDS011;9807;48.258;12.690;2023-05-10T03:28:15;7.43;;;5.30;;
19341;SDS011;9807;48.258;12.690;2023-05-10T03:30:42;7.93;;;4.50;;
19341;SDS011;9807;48.258;12.690;2023-05-10T03:33:10;5.33;;;4.83;;
19341;SDS011;9807;48.258;12.690;2023-05-10T03:35:36;7.00;;;5.20;;
19341;SDS011;9807;48.258;12.690;2023-05-10T03:38:01;7.10;;;6.07;;
19341;SDS011;9807;48.258;12.690;2023-05-10T03:40:33;4.93;;;4.40;;
19341;SDS011;9807;48.258;12.690;2023-05-10T03:42:59;9.90;;;6.80;;
19341;SDS011;9807;48.258;12.690;2023-05-10T03:45:25;7.13;;;5.73;;
19341;SDS011;9807;48.258;12.690;2023-05-10T03:47:51;5.13;;;4.73;;
19341;SDS011;9807;48.258;12.690;2023-05-10T03:50:17;7.47;;;6.67;;
19341;SDS011;9807;48.258;12.690;2023-05-10T03:52:43;7.33;;;5.73;;
19341;SDS011;9807;48.258;12.690;2023-05-10T03:55:09;4.73;;;4.30;;
19341;SDS011;9807;48.258;12.690;2023-05-10T03:57:35;10.13;;;7.57;;
19341;SDS011;9807;48.258;12.690;2023-05-10T04:00:01;7.03;;;5.73;;
19341;SDS011;9807;48.258;12.690;2023-05-10T04:02:31;6.50;;;5.37;;
19341;SDS011;9807;48.258;12.690;2023-05-10T04:05:01;5.57;;;5.07;;
19341;SDS011;9807;48.258;12.690;2023-05-10T04:07:27;6.00;;;4.87;;
19341;SDS011;9807;48.258;12.690;2023-05-10T04:09:54;6.13;;;4.17;;
19341;SDS011;9807;48.258;12.690;2023-05-10T04:12:20;8.93;;;5.13;;
19341;SDS011;9807;48.258;12.690;2023-05-10T04:14:45;5.73;;;5.10;;
19341;SDS011;9807;48.258;12.690;2023-05-10T04:17:11;6.37;;;5.03;;
19341;SDS011;9807;48.258;12.690;2023-05-10T04:19:37;7.80;;;6.37;;
19341;SDS011;9807;48.258;12.690;2023-05-10T04:22:03;8.47;;;6.60;;
19341;SDS011;9807;48.258;12.690;2023-05-10T04:24:29;13.07;;;8.53;;
19341;SDS011;9807;48.258;12.690;2023-05-10T04:26:54;13.73;;;8.43;;
19341;SDS011;9807;48.258;12.690;2023-05-10T04:29:20;10.33;;;8.00;;
19341;SDS011;9807;48.258;12.690;2023-05-10T04:31:46;9.30;;;7.87;;
19341;SDS011;9807;48.258;12.690;2023-05-10T04:34:12;8.43;;;6.83;;
19341;SDS011;9807;48.258;12.690;2023-05-10T04:36:37;8.87;;;6.80;;
19341;SDS011;9807;48.258;12.690;2023-05-10T04:39:03;5.97;;;5.37;;
19341;SDS011;9807;48.258;12.690;2023-05-10T04:41:29;4.97;;;4.30;;
19341;SDS011;9807;48.258;12.690;2023-05-10T04:43:55;10.60;;;7.27;;
19341;SDS011;9807;48.258;12.690;2023-05-10T04:46:21;11.70;;;8.77;;
19341;SDS011;9807;48.258;12.690;2023-05-10T04:48:47;9.60;;;7.63;;
19341;SDS011;9807;48.258;12.690;2023-05-10T04:51:13;7.00;;;6.03;;
19341;SDS011;9807;48.258;12.690;2023-05-10T04:53:38;6.47;;;5.00;;
19341;SDS011;9807;48.258;12.690;2023-05-10T04:56:07;7.87;;;6.27;;
19341;SDS011;9807;48.258;12.690;2023-05-10T04:58:32;9.30;;;7.10;;
19341;SDS011;9807;48.258;12.690;2023-05-10T05:01:05;9.53;;;7.70;;
19341;SDS011;9807;48.258;12.690;2023-05-10T05:03:32;9.77;;;6.53;;
19341;SDS011;9807;48.258;12.690;2023-05-10T05:05:59;12.63;;;7.43;;
19341;SDS011;9807;48.258;12.690;2023-05-10T05:08:28;7.73;;;6.93;;
19341;SDS011;9807;48.258;12.690;2023-05-10T05:10:54;8.20;;;6.70;;
19341;SDS011;9807;48.258;12.690;2023-05-10T05:13:19;11.43;;;7.70;;
19341;SDS011;9807;48.258;12.690;2023-05-10T05:15:45;12.63;;;7.10;;
19341;SDS011;9807;48.258;12.690;2023-05-10T05:18:11;9.60;;;6.33;;
19341;SDS011;9807;48.258;12.690;2023-05-10T05:20:37;7.90;;;6.23;;
19341;SDS011;9807;48.258;12.690;2023-05-10T05:23:03;7.27;;;5.50;;
19341;SDS011;9807;48.258;12.690;2023-05-10T05:25:28;8.20;;;4.90;;
19341;SDS011;9807;48.258;12.690;2023-05-10T05:27:54;9.23;;;4.70;;
19341;SDS011;9807;48.258;12.690;2023-05-10T05:30:20;7.00;;;4.03;;
19341;SDS011;9807;48.258;12.690;2023-05-10T05:32:48;5.37;;;3.40;;
19341;SDS011;9807;48.258;12.690;2023-05-10T05:35:14;3.87;;;2.80;;
19341;SDS011;9807;48.258;12.690;2023-05-10T05:37:40;5.90;;;2.97;;
19341;SDS011;9807;48.258;12.690;2023-05-10T05:40:06;4.03;;;2.00;;
19341;SDS011;9807;48.258;12.690;2023-05-10T05:42:32;2.33;;;2.00;;
19341;SDS011;9807;48.258;12.690;2023-05-10T05:45:01;3.10;;;1.63;;
19341;SDS011;9807;48.258;12.690;2023-05-10T05:47:27;6.47;;;1.80;;
19341;SDS011;9807;48.258;12.690;2023-05-10T05:49:53;2.10;;;1.30;;
19341;SDS011;9807;48.258;12.690;2023-05-10T05:52:18;2.33;;;1.37;;
19341;SDS011;9807;48.258;12.690;2023-05-10T05:54:50;2.87;;;1.13;;
19341;SDS011;9807;48.258;12.690;2023-05-10T05:57:15;1.13;;;1.10;;
19341;SDS011;9807;48.258;12.690;2023-05-10T05:59:41;2.40;;;1.10;;
19341;SDS011;9807;48.258;12.690;2023-05-10T06:02:09;3.87;;;1.30;;
19341;SDS011;9807;48.258;12.690;2023-05-10T06:04:35;5.50;;;1.23;;
19341;SDS011;9807;48.258;12.690;2023-05-10T06:07:01;2.93;;;1.30;;
19341;SDS011;9807;48.258;12.690;2023-05-10T06:09:26;2.27;;;1.20;;
19341;SDS011;9807;48.258;12.690;2023-05-10T06:11:52;2.17;;;1.03;;
19341;SDS011;9807;48.258;12.690;2023-05-10T06:14:20;2.10;;;1.10;;
19341;SDS011;9807;48.258;12.690;2023-05-10T06:16:45;4.00;;;1.40;;
19341;SDS011;9807;48.258;12.690;2023-05-10T06:19:11;3.83;;;1.00;;
19341;SDS011;9807;48.258;12.690;2023-05-10T06:21:37;5.23;;;1.00;;
19341;SDS011;9807;48.258;12.690;2023-05-10T06:24:07;3.27;;;0.97;;
19341;SDS011;9807;48.258;12.690;2023-05-10T06:26:36;3.80;;;1.00;;
19341;SDS011;9807;48.258;12.690;2023-05-10T06:29:02;2.40;;;1.10;;
19341;SDS011;9807;48.258;12.690;2023-05-10T06:31:37;5.27;;;0.90;;
19341;SDS011;9807;48.258;12.690;2023-05-10T06:34:05;3.00;;;1.00;;
19341;SDS011;9807;48.258;12.690;2023-05-10T06:36:36;5.77;;;1.07;;
19341;SDS011;9807;48.258;12.690;2023-05-10T06:39:02;1.67;;;0.80;;
19341;SDS011;9807;48.258;12.690;2023-05-10T06:41:31;3.43;;;1.20;;
19341;SDS011;9807;48.258;12.690;2023-05-10T06:43:57;2.33;;;1.00;;
19341;SDS011;9807;48.258;12.690;2023-05-10T06:46:28;5.03;;;1.10;;
19341;SDS011;9807;48.258;12.690;2023-05-10T06:48:54;1.53;;;1.37;;
19341;SDS011;9807;48.258;12.690;2023-05-10T06:51:20;1.50;;;1.00;;
19341;SDS011;9807;48.258;12.690;2023-05-10T06:53:46;4.97;;;1.00;;
19341;SDS011;9807;48.258;12.690;2023-05-10T06:56:12;2.13;;;1.23;;
19341;SDS011;9807;48.258;12.690;2023-05-10T06:58:38;4.17;;;1.40;;
19341;SDS011;9807;48.258;12.690;2023-05-10T07:01:04;2.93;;;1.40;;
19341;SDS011;9807;48.258;12.690;2023-05-10T07:03:30;3.37;;;1.23;;
19341;SDS011;9807;48.258;12.690;2023-05-10T07:06:01;3.13;;;1.10;;
19341;SDS011;9807;48.258;12.690;2023-05-10T07:25:26;1.13;;;1.03;;
19341;SDS011;9807;48.258;12.690;2023-05-10T07:27:51;1.10;;;1.00;;
19341;SDS011;9807;48.258;12.690;2023-05-10T07:30:17;1.53;;;1.00;;
19341;SDS011;9807;48.258;12.690;2023-05-10T07:32:46;5.23;;;1.50;;
19341;SDS011;9807;48.258;12.690;2023-05-10T07:35:11;2.00;;;1.40;;
19341;SDS011;9807;48.258;12.690;2023-05-10T07:37:37;2.00;;;1.80;;
19341;SDS011;9807;48.258;12.690;2023-05-10T07:40:03;3.37;;;2.27;;
19341;SDS011;9807;48.258;12.690;2023-05-10T07:42:29;4.07;;;2.53;;
19341;SDS011;9807;48.258;12.690;2023-05-10T07:44:55;3.20;;;2.37;;
19341;SDS011;9807;48.258;12.690;2023-05-10T07:47:21;6.23;;;2.90;;
19341;SDS011;9807;48.258;12.690;2023-05-10T07:49:46;4.00;;;3.00;;
19341;SDS011;9807;48.258;12.690;2023-05-10T07:52:13;5.00;;;3.33;;
19341;SDS011;9807;48.258;12.690;2023-05-10T07:54:39;5.13;;;2.53;;
19341;SDS011;9807;48.258;12.690;2023-05-10T07:57:05;7.13;;;2.37;;
19341;SDS011;9807;48.258;12.690;2023-05-10T07:59:31;5.10;;;2.37;;
19341;SDS011;9807;48.258;12.690;2023-05-10T08:02:00;5.43;;;1.90;;
19341;SDS011;9807;48.258;12.690;2023-05-10T08:04:26;3.67;;;2.03;;
19341;SDS011;9807;48.258;12.690;2023-05-10T08:06:52;2.20;;;2.00;;
19341;SDS011;9807;48.258;12.690;2023-05-10T08:09:17;3.30;;;1.90;;
19341;SDS011;9807;48.258;12.690;2023-05-10T08:11:48;7.13;;;4.23;;
19341;SDS011;9807;48.258;12.690;2023-05-10T08:14:16;5.27;;;3.70;;
19341;SDS011;9807;48.258;12.690;2023-05-10T08:16:43;10.00;;;8.07;;
19341;SDS011;9807;48.258;12.690;2023-05-10T08:19:09;10.40;;;9.00;;
19341;SDS011;9807;48.258;12.690;2023-05-10T08:21:37;6.07;;;4.90;;
19341;SDS011;9807;48.258;12.690;2023-05-10T08:24:05;10.33;;;4.77;;
19341;SDS011;9807;48.258;12.690;2023-05-10T08:26:32;7.70;;;5.00;;
19341;SDS011;9807;48.258;12.690;2023-05-10T08:29:01;6.87;;;5.03;;
19341;SDS011;9807;48.258;12.690;2023-05-10T08:31:27;5.00;;;4.33;;
19341;SDS011;9807;48.258;12.690;2023-05-10T08:33:53;8.30;;;5.10;;
19341;SDS011;9807;48.258;12.690;2023-05-10T08:36:19;8.97;;;5.93;;
19341;SDS011;9807;48.258;12.690;2023-05-10T08:38:55;7.90;;;6.30;;
19341;SDS011;9807;48.258;12.690;2023-05-10T08:41:21;6.80;;;5.70;;
19341;SDS011;9807;48.258;12.690;2023-05-10T08:43:51;7.63;;;5.07;;
19341;SDS011;9807;48.258;12.690;2023-05-10T08:46:19;5.57;;;4.70;;
19341;SDS011;9807;48.258;12.690;2023-05-10T08:48:45;4.00;;;3.70;;
19341;SDS011;9807;48.258;12.690;2023-05-10T08:51:35;5.53;;;3.73;;
19341;SDS011;9807;48.258;12.690;2023-05-10T08:54:01;3.60;;;3.30;;
19341;SDS011;9807;48.258;12.690;2023-05-10T08:56:28;5.40;;;3.07;;
19341;SDS011;9807;48.258;12.690;2023-05-10T08:58:54;4.27;;;2.60;;
19341;SDS011;9807;48.258;12.690;2023-05-10T09:01:21;2.90;;;2.00;;
19341;SDS011;9807;48.258;12.690;2023-05-10T09:03:47;2.23;;;2.03;;
19341;SDS011;9807;48.258;12.690;2023-05-10T09:06:13;2.13;;;1.90;;
19341;SDS011;9807;48.258;12.690;2023-05-10T09:08:39;3.43;;;1.97;;
19341;SDS011;9807;48.258;12.690;2023-05-10T09:11:07;2.33;;;2.13;;
19341;SDS011;9807;48.258;12.690;2023-05-10T09:13:35;4.97;;;2.30;;
19341;SDS011;9807;48.258;12.690;2023-05-10T09:16:02;3.73;;;2.50;;
19341;SDS011;9807;48.258;12.690;2023-05-10T09:18:29;2.90;;;2.70;;
19341;SDS011;9807;48.258;12.690;2023-05-10T09:20:55;5.30;;;2.67;;
19341;SDS011;9807;48.258;12.690;2023-05-10T09:23:21;2.97;;;2.77;;
19341;SDS011;9807;48.258;12.690;2023-05-10T09:26:08;3.00;;;2.80;;
19341;SDS011;9807;48.258;12.690;2023-05-10T09:28:56;3.70;;;3.20;;
19341;SDS011;9807;48.258;12.690;2023-05-10T09:31:42;3.03;;;2.83;;
19341;SDS011;9807;48.258;12.690;2023-05-10T09:34:15;4.10;;;2.90;;
19341;SDS011;9807;48.258;12.690;2023-05-10T09:36:54;4.83;;;3.20;;
19341;SDS011;9807;48.258;12.690;2023-05-10T09:39:34;5.40;;;2.80;;
19341;SDS011;9807;48.258;12.690;2023-05-10T09:42:24;5.00;;;3.23;;
19341;SDS011;9807;48.258;12.690;2023-05-10T09:44:49;3.43;;;3.10;;
19341;SDS011;9807;48.258;12.690;2023-05-10T09:47:18;3.43;;;3.13;;
19341;SDS011;9807;48.258;12.690;2023-05-10T09:49:44;4.30;;;3.10;;
19341;SDS011;9807;48.258;12.690;2023-05-10T09:52:15;3.10;;;2.90;;
19341;SDS011;9807;48.258;12.690;2023-05-10T09:54:44;3.40;;;2.93;;
19341;SDS011;9807;48.258;12.690;2023-05-10T09:57:21;3.33;;;3.03;;
19341;SDS011;9807;48.258;12.690;2023-05-10T09:59:48;3.60;;;3.00;;
19341;SDS011;9807;48.258;12.690;2023-05-10T10:02:15;3.27;;;2.97;;
19341;SDS011;9807;48.258;12.690;2023-05-10T10:04:41;3.70;;;3.30;;
19341;SDS011;9807;48.258;12.690;2023-05-10T10:07:07;4.17;;;3.07;;
19341;SDS011;9807;48.258;12.690;2023-05-10T10:09:34;3.50;;;3.20;;
19341;SDS011;9807;48.258;12.690;2023-05-10T10:12:00;3.50;;;3.20;;
19341;SDS011;9807;48.258;12.690;2023-05-10T10:14:27;3.27;;;2.90;;
19341;SDS011;9807;48.258;12.690;2023-05-10T10:16:54;5.60;;;3.43;;
19341;SDS011;9807;48.258;12.690;2023-05-10T10:19:26;2.80;;;2.60;;
19341;SDS011;9807;48.258;12.690;2023-05-10T10:21:53;3.03;;;2.83;;
19341;SDS011;9807;48.258;12.690;2023-05-10T10:24:18;3.47;;;2.90;;
19341;SDS011;9807;48.258;12.690;2023-05-10T10:26:50;4.03;;;2.60;;
19341;SDS011;9807;48.258;12.690;2023-05-10T10:29:39;2.80;;;2.60;;
19341;SDS011;9807;48.258;12.690;2023-05-10T10:34:59;8.47;;;3.03;;
19341;SDS011;9807;48.258;12.690;2023-05-10T10:37:40;4.50;;;2.80;;
19341;SDS011;9807;48.258;12.690;2023-05-10T10:40:22;4.00;;;2.40;;
19341;SDS011;9807;48.258;12.690;2023-05-10T10:42:51;2.70;;;2.43;;
19341;SDS011;9807;48.258;12.690;2023-05-10T10:45:38;2.83;;;2.60;;
19341;SDS011;9807;48.258;12.690;2023-05-10T10:48:20;5.43;;;2.80;;
19341;SDS011;9807;48.258;12.690;2023-05-10T10:51:02;2.50;;;2.30;;
19341;SDS011;9807;48.258;12.690;2023-05-10T10:53:28;2.70;;;2.50;;
19341;SDS011;9807;48.258;12.690;2023-05-10T10:56:07;2.63;;;2.30;;
19341;SDS011;9807;48.258;12.690;2023-05-10T10:58:35;2.70;;;2.50;;
19341;SDS011;9807;48.258;12.690;2023-05-10T11:01:09;2.70;;;2.50;;
19341;SDS011;9807;48.258;12.690;2023-05-10T11:03:39;8.30;;;2.40;;
19341;SDS011;9807;48.258;12.690;2023-05-10T11:06:05;2.70;;;2.50;;
19341;SDS011;9807;48.258;12.690;2023-05-10T11:08:33;4.03;;;2.43;;
19341;SDS011;9807;48.258;12.690;2023-05-10T11:11:07;3.30;;;2.47;;
19341;SDS011;9807;48.258;12.690;2023-05-10T11:13:34;3.10;;;2.40;;
19341;SDS011;9807;48.258;12.690;2023-05-10T11:16:10;1.97;;;1.87;;
19341;SDS011;9807;48.258;12.690;2023-05-10T11:21:32;1.73;;;1.60;;
19341;SDS011;9807;48.258;12.690;2023-05-10T11:24:13;1.70;;;1.60;;
19341;SDS011;9807;48.258;12.690;2023-05-10T11:26:40;1.63;;;1.40;;
19341;SDS011;9807;48.258;12.690;2023-05-10T11:29:06;2.87;;;1.90;;
19341;SDS011;9807;48.258;12.690;2023-05-10T11:31:32;12.30;;;3.93;;
19341;SDS011;9807;48.258;12.690;2023-05-10T11:34:01;4.33;;;2.93;;
19341;SDS011;9807;48.258;12.690;2023-05-10T11:36:27;3.97;;;3.30;;
19341;SDS011;9807;48.258;12.690;2023-05-10T11:38:55;4.00;;;3.70;;
19341;SDS011;9807;48.258;12.690;2023-05-10T11:41:22;6.23;;;5.17;;
19341;SDS011;9807;48.258;12.690;2023-05-10T11:43:49;6.97;;;5.37;;
19341;SDS011;9807;48.258;12.690;2023-05-10T11:46:18;6.80;;;6.20;;
19341;SDS011;9807;48.258;12.690;2023-05-10T11:48:45;6.10;;;5.40;;
19341;SDS011;9807;48.258;12.690;2023-05-10T11:51:19;8.13;;;4.90;;
19341;SDS011;9807;48.258;12.690;2023-05-10T11:53:49;5.47;;;5.07;;
19341;SDS011;9807;48.258;12.690;2023-05-10T11:56:16;5.93;;;4.00;;
19341;SDS011;9807;48.258;12.690;2023-05-10T11:58:41;5.20;;;4.77;;
19341;SDS011;9807;48.258;12.690;2023-05-10T12:01:07;4.10;;;3.70;;
19341;SDS011;9807;48.258;12.690;2023-05-10T12:03:35;3.33;;;3.00;;
19341;SDS011;9807;48.258;12.690;2023-05-10T12:06:01;5.20;;;3.43;;
19341;SDS011;9807;48.258;12.690;2023-05-10T12:08:31;6.23;;;3.70;;
19341;SDS011;9807;48.258;12.690;2023-05-10T12:11:07;3.37;;;3.07;;
19341;SDS011;9807;48.258;12.690;2023-05-10T12:13:38;5.53;;;3.07;;
19341;SDS011;9807;48.258;12.690;2023-05-10T12:16:21;2.90;;;2.70;;
19341;SDS011;9807;48.258;12.690;2023-05-10T12:18:49;5.30;;;3.20;;
19341;SDS011;9807;48.258;12.690;2023-05-10T12:21:19;5.50;;;3.80;;
19341;SDS011;9807;48.258;12.690;2023-05-10T12:23:52;5.80;;;3.40;;
19341;SDS011;9807;48.258;12.690;2023-05-10T12:26:23;4.33;;;4.00;;
19341;SDS011;9807;48.258;12.690;2023-05-10T12:28:51;3.80;;;3.50;;
19341;SDS011;9807;48.258;12.690;2023-05-10T12:31:20;6.67;;;4.73;;
19341;SDS011;9807;48.258;12.690;2023-05-10T12:33:46;8.33;;;5.00;;
19341;SDS011;9807;48.258;12.690;2023-05-10T12:36:13;5.07;;;3.83;;
19341;SDS011;9807;48.258;12.690;2023-05-10T12:38:45;5.60;;;5.00;;
19341;SDS011;9807;48.258;12.690;2023-05-10T12:41:16;6.13;;;4.03;;
19341;SDS011;9807;48.258;12.690;2023-05-10T12:43:42;7.80;;;3.63;;
19341;SDS011;9807;48.258;12.690;2023-05-10T12:46:09;5.07;;;2.63;;
19341;SDS011;9807;48.258;12.690;2023-05-10T12:48:36;8.57;;;3.57;;
19341;SDS011;9807;48.258;12.690;2023-05-10T12:51:05;4.13;;;2.70;;
19341;SDS011;9807;48.258;12.690;2023-05-10T12:53:36;2.87;;;2.57;;
19341;SDS011;9807;48.258;12.690;2023-05-10T12:56:05;4.40;;;2.30;;
19341;SDS011;9807;48.258;12.690;2023-05-10T12:58:34;3.87;;;2.10;;
19341;SDS011;9807;48.258;12.690;2023-05-10T13:01:00;13.13;;;4.17;;
19341;SDS011;9807;48.258;12.690;2023-05-10T13:03:26;5.97;;;2.23;;
19341;SDS011;9807;48.258;12.690;2023-05-10T13:06:01;2.67;;;1.80;;
19341;SDS011;9807;48.258;12.690;2023-05-10T13:08:27;2.03;;;1.50;;
19341;SDS011;9807;48.258;12.690;2023-05-10T13:10:57;2.50;;;2.10;;
19341;SDS011;9807;48.258;12.690;2023-05-10T13:13:25;2.23;;;1.90;;
19341;SDS011;9807;48.258;12.690;2023-05-10T13:15:51;2.70;;;1.97;;
19341;SDS011;9807;48.258;12.690;2023-05-10T13:18:17;2.27;;;1.93;;
19341;SDS011;9807;48.258;12.690;2023-05-10T13:20:43;4.30;;;1.50;;
19341;SDS011;9807;48.258;12.690;2023-05-10T13:23:09;5.47;;;1.60;;
19341;SDS011;9807;48.258;12.690;2023-05-10T13:25:38;3.27;;;1.90;;
19341;SDS011;9807;48.258;12.690;2023-05-10T13:28:04;3.50;;;1.70;;
19341;SDS011;9807;48.258;12.690;2023-05-10T13:30:29;1.70;;;1.30;;
19341;SDS011;9807;48.258;12.690;2023-05-10T13:32:55;4.03;;;1.57;;
19341;SDS011;9807;48.258;12.690;2023-05-10T13:35:21;1.93;;;1.30;;
19341;SDS011;9807;48.258;12.690;2023-05-10T13:37:46;1.90;;;1.50;;
19341;SDS011;9807;48.258;12.690;2023-05-10T13:40:12;4.73;;;1.60;;
19341;SDS011;9807;48.258;12.690;2023-05-10T13:42:40;4.93;;;2.10;;
19341;SDS011;9807;48.258;12.690;2023-05-10T13:45:07;4.07;;;2.20;;
19341;SDS011;9807;48.258;12.690;2023-05-10T13:47:33;4.63;;;1.90;;
19341;SDS011;9807;48.258;12.690;2023-05-10T13:50:01;2.27;;;1.70;;
19341;SDS011;9807;48.258;12.690;2023-05-10T13:52:28;1.77;;;1.50;;
19341;SDS011;9807;48.258;12.690;2023-05-10T13:54:54;3.83;;;2.00;;
19341;SDS011;9807;48.258;12.690;2023-05-10T13:57:20;2.80;;;1.73;;
19341;SDS011;9807;48.258;12.690;2023-05-10T13:59:46;2.63;;;1.63;;
19341;SDS011;9807;48.258;12.690;2023-05-10T14:02:12;2.73;;;1.93;;
19341;SDS011;9807;48.258;12.690;2023-05-10T14:04:38;2.87;;;1.63;;
19341;SDS011;9807;48.258;12.690;2023-05-10T14:07:04;4.03;;;1.90;;
19341;SDS011;9807;48.258;12.690;2023-05-10T14:09:30;3.47;;;1.47;;
19341;SDS011;9807;48.258;12.690;2023-05-10T14:11:56;3.10;;;1.80;;
19341;SDS011;9807;48.258;12.690;2023-05-10T14:14:22;2.83;;;1.63;;
19341;SDS011;9807;48.258;12.690;2023-05-10T14:16:48;6.37;;;2.20;;
19341;SDS011;9807;48.258;12.690;2023-05-10T14:19:16;3.53;;;1.90;;
19341;SDS011;9807;48.258;12.690;2023-05-10T14:21:42;5.03;;;1.90;;
19341;SDS011;9807;48.258;12.690;2023-05-10T14:24:08;4.80;;;1.90;;
19341;SDS011;9807;48.258;12.690;2023-05-10T14:26:33;3.60;;;1.90;;
19341;SDS011;9807;48.258;12.690;2023-05-10T14:28:59;3.13;;;2.10;;
19341;SDS011;9807;48.258;12.690;2023-05-10T14:31:25;4.13;;;2.43;;
19341;SDS011;9807;48.258;12.690;2023-05-10T14:33:51;3.93;;;2.23;;
19341;SDS011;9807;48.258;12.690;2023-05-10T14:36:17;3.97;;;1.80;;
19341;SDS011;9807;48.258;12.690;2023-05-10T14:38:43;5.13;;;2.33;;
19341;SDS011;9807;48.258;12.690;2023-05-10T14:41:09;3.33;;;1.90;;
19341;SDS011;9807;48.258;12.690;2023-05-10T14:43:38;3.33;;;2.00;;
19341;SDS011;9807;48.258;12.690;2023-05-10T14:46:04;3.83;;;2.20;;
19341;SDS011;9807;48.258;12.690;2023-05-10T14:48:30;7.30;;;2.20;;
19341;SDS011;9807;48.258;12.690;2023-05-10T14:50:56;5.33;;;2.27;;
19341;SDS011;9807;48.258;12.690;2023-05-10T14:53:22;6.40;;;2.50;;
19341;SDS011;9807;48.258;12.690;2023-05-10T14:55:48;3.30;;;2.10;;
19341;SDS011;9807;48.258;12.690;2023-05-10T14:58:14;5.33;;;2.37;;
19341;SDS011;9807;48.258;12.690;2023-05-10T15:00:40;3.10;;;1.90;;
19341;SDS011;9807;48.258;12.690;2023-05-10T15:03:06;3.93;;;1.93;;
19341;SDS011;9807;48.258;12.690;2023-05-10T15:05:34;2.23;;;2.00;;
19341;SDS011;9807;48.258;12.690;2023-05-10T15:08:04;4.20;;;1.90;;
19341;SDS011;9807;48.258;12.690;2023-05-10T15:10:30;2.53;;;1.67;;
19341;SDS011;9807;48.258;12.690;2023-05-10T15:12:57;3.07;;;2.00;;
19341;SDS011;9807;48.258;12.690;2023-05-10T15:15:24;2.10;;;1.70;;
19341;SDS011;9807;48.258;12.690;2023-05-10T15:17:49;1.87;;;1.77;;
19341;SDS011;9807;48.258;12.690;2023-05-10T15:20:15;4.03;;;1.70;;
19341;SDS011;9807;48.258;12.690;2023-05-10T15:22:41;2.67;;;1.63;;
19341;SDS011;9807;48.258;12.690;2023-05-10T15:25:07;2.80;;;2.00;;
19341;SDS011;9807;48.258;12.690;2023-05-10T15:27:33;4.23;;;1.90;;
19341;SDS011;9807;48.258;12.690;2023-05-10T15:29:59;5.37;;;2.03;;
19341;SDS011;9807;48.258;12.690;2023-05-10T15:32:25;4.20;;;2.60;;
19341;SDS011;9807;48.258;12.690;2023-05-10T15:34:51;6.17;;;3.40;;
19341;SDS011;9807;48.258;12.690;2023-05-10T15:37:17;6.10;;;4.03;;
19341;SDS011;9807;48.258;12.690;2023-05-10T15:39:43;8.20;;;6.10;;
19341;SDS011;9807;48.258;12.690;2023-05-10T15:42:09;6.90;;;5.37;;